RYR551 LOWW-LZKZ
Flight info
| Callsign | RYR551 |
|---|---|
| Flight time | 0h 41m |
| Altitude | 23000 |
| Route | KOXER1D KOXER Z649 XENAK M985 JAN DCT TURIS DCT SLC DCT KALIF DCT TAKOS TAKOS1K |
| Aircraft | B738/M-SDE2E3FGHIRWXY/LB1 |
Departure
| Time | 2026-04-18 04:17 |
|---|---|
| Airport | Vienna International Airport (LOWW) |
Arrival
| Time | 2026-04-18 04:58 |
|---|---|
| Airport | Košice International Airport (LZKZ) |
| Time | Latitude | Longitude | Altitude | Speed | Heading |
|---|---|---|---|---|---|
| 2026-04-18 04:11 | 48.11594 | 16.56754 | 600 ft | 0 kts | 206° |
| 2026-04-18 04:12 | 48.11590 | 16.56753 | 600 ft | 5 kts | 197° |
| 2026-04-18 04:12 | 48.11482 | 16.56808 | 602 ft | 23 kts | 169° |
| 2026-04-18 04:12 | 48.11321 | 16.56935 | 605 ft | 31 kts | 118° |
| 2026-04-18 04:12 | 48.11213 | 16.57258 | 608 ft | 38 kts | 115° |
| 2026-04-18 04:13 | 48.11102 | 16.57615 | 603 ft | 37 kts | 115° |
| 2026-04-18 04:13 | 48.10960 | 16.57913 | 604 ft | 34 kts | 136° |
| 2026-04-18 04:13 | 48.10760 | 16.58066 | 603 ft | 31 kts | 167° |
| 2026-04-18 04:13 | 48.10554 | 16.58125 | 603 ft | 29 kts | 171° |
| 2026-04-18 04:14 | 48.10362 | 16.58079 | 612 ft | 27 kts | 177° |
| 2026-04-18 04:14 | 48.10184 | 16.58152 | 618 ft | 26 kts | 163° |
| 2026-04-18 04:14 | 48.10020 | 16.58225 | 603 ft | 24 kts | 164° |
| 2026-04-18 04:14 | 48.09864 | 16.58291 | 613 ft | 23 kts | 165° |
| 2026-04-18 04:15 | 48.09713 | 16.58352 | 610 ft | 22 kts | 165° |
| 2026-04-18 04:15 | 48.09566 | 16.58412 | 603 ft | 22 kts | 165° |
| 2026-04-18 04:15 | 48.09423 | 16.58467 | 601 ft | 21 kts | 165° |
| 2026-04-18 04:15 | 48.09286 | 16.58531 | 598 ft | 20 kts | 163° |
| 2026-04-18 04:16 | 48.09153 | 16.58590 | 596 ft | 20 kts | 164° |
| 2026-04-18 04:16 | 48.09023 | 16.58645 | 595 ft | 19 kts | 161° |
| 2026-04-18 04:16 | 48.08930 | 16.58770 | 596 ft | 18 kts | 114° |
| 2026-04-18 04:16 | 48.08941 | 16.58951 | 596 ft | 18 kts | 59° |
| 2026-04-18 04:17 | 48.09130 | 16.59024 | 596 ft | 67 kts | 344° |
| 2026-04-18 04:17 | 48.09874 | 16.58710 | 604 ft | 152 kts | 344° |
| 2026-04-18 04:17 | 48.11103 | 16.58207 | 638 ft | 212 kts | 344° |
| 2026-04-18 04:17 | 48.12504 | 16.57607 | 1837 ft | 201 kts | 346° |
| 2026-04-18 04:18 | 48.13929 | 16.57225 | 2659 ft | 220 kts | 5° |
| 2026-04-18 04:18 | 48.15318 | 16.58218 | 3441 ft | 230 kts | 45° |
| 2026-04-18 04:18 | 48.16043 | 16.60443 | 3859 ft | 252 kts | 81° |
| 2026-04-18 04:18 | 48.16101 | 16.63145 | 4401 ft | 265 kts | 86° |
| 2026-04-18 04:19 | 48.16151 | 16.65923 | 5187 ft | 268 kts | 85° |
| 2026-04-18 04:19 | 48.16245 | 16.68711 | 6007 ft | 269 kts | 83° |
| 2026-04-18 04:19 | 48.16409 | 16.71522 | 6789 ft | 270 kts | 75° |
| 2026-04-18 04:19 | 48.16892 | 16.74251 | 7537 ft | 271 kts | 69° |
| 2026-04-18 04:20 | 48.17459 | 16.76952 | 8305 ft | 273 kts | 69° |
| 2026-04-18 04:20 | 48.17874 | 16.79754 | 9003 ft | 283 kts | 88° |
| 2026-04-18 04:20 | 48.17479 | 16.82639 | 9767 ft | 290 kts | 104° |
| 2026-04-18 04:20 | 48.16866 | 16.85531 | 10448 ft | 295 kts | 104° |
| 2026-04-18 04:21 | 48.16215 | 16.88562 | 10674 ft | 317 kts | 105° |
| 2026-04-18 04:21 | 48.15521 | 16.91805 | 10848 ft | 338 kts | 105° |
| 2026-04-18 04:21 | 48.14790 | 16.95269 | 11059 ft | 357 kts | 105° |
| 2026-04-18 04:21 | 48.14039 | 16.98865 | 11545 ft | 365 kts | 104° |
| 2026-04-18 04:22 | 48.13275 | 17.02523 | 12217 ft | 369 kts | 104° |
| 2026-04-18 04:22 | 48.12645 | 17.06246 | 12883 ft | 370 kts | 94° |
| 2026-04-18 04:22 | 48.12494 | 17.10100 | 13571 ft | 371 kts | 89° |
| 2026-04-18 04:22 | 48.12425 | 17.13934 | 14217 ft | 376 kts | 89° |
| 2026-04-18 04:23 | 48.12331 | 17.17881 | 14851 ft | 380 kts | 89° |
| 2026-04-18 04:23 | 48.12203 | 17.21863 | 15510 ft | 384 kts | 90° |
| 2026-04-18 04:23 | 48.12060 | 17.25864 | 16151 ft | 388 kts | 89° |
| 2026-04-18 04:23 | 48.12172 | 17.29898 | 16782 ft | 388 kts | 79° |
| 2026-04-18 04:24 | 48.12752 | 17.33824 | 17418 ft | 387 kts | 68° |
| 2026-04-18 04:24 | 48.13677 | 17.37611 | 18074 ft | 389 kts | 65° |
| 2026-04-18 04:24 | 48.14656 | 17.41413 | 18648 ft | 393 kts | 65° |
| 2026-04-18 04:24 | 48.15635 | 17.45258 | 19193 ft | 396 kts | 65° |
| 2026-04-18 04:25 | 48.16600 | 17.49145 | 19761 ft | 399 kts | 66° |
| 2026-04-18 04:25 | 48.17559 | 17.53066 | 20320 ft | 402 kts | 66° |
| 2026-04-18 04:25 | 48.18463 | 17.57036 | 20838 ft | 406 kts | 68° |
| 2026-04-18 04:25 | 48.19281 | 17.61123 | 21360 ft | 410 kts | 69° |
| 2026-04-18 04:26 | 48.20052 | 17.65201 | 21867 ft | 413 kts | 70° |
| 2026-04-18 04:26 | 48.20828 | 17.69363 | 22382 ft | 416 kts | 69° |
| 2026-04-18 04:26 | 48.21610 | 17.73549 | 22931 ft | 418 kts | 69° |
| 2026-04-18 04:26 | 48.22400 | 17.77746 | 23201 ft | 420 kts | 69° |
| 2026-04-18 04:27 | 48.23193 | 17.81936 | 23201 ft | 416 kts | 69° |
| 2026-04-18 04:27 | 48.23988 | 17.86119 | 23205 ft | 416 kts | 69° |
| 2026-04-18 04:27 | 48.24785 | 17.90304 | 23202 ft | 417 kts | 69° |
| 2026-04-18 04:27 | 48.25584 | 17.94501 | 23204 ft | 418 kts | 69° |
| 2026-04-18 04:28 | 48.26385 | 17.98713 | 23208 ft | 419 kts | 69° |
| 2026-04-18 04:28 | 48.27176 | 18.02885 | 23192 ft | 420 kts | 69° |
| 2026-04-18 04:28 | 48.27984 | 18.07161 | 23198 ft | 420 kts | 70° |
| 2026-04-18 04:28 | 48.28770 | 18.11329 | 23193 ft | 420 kts | 70° |
| 2026-04-18 04:29 | 48.29562 | 18.15541 | 23197 ft | 420 kts | 70° |
| 2026-04-18 04:29 | 48.30354 | 18.19762 | 23200 ft | 419 kts | 70° |
| 2026-04-18 04:29 | 48.31144 | 18.23976 | 23201 ft | 419 kts | 70° |
| 2026-04-18 04:29 | 48.31933 | 18.28199 | 23195 ft | 419 kts | 70° |
| 2026-04-18 04:30 | 48.32718 | 18.32408 | 23201 ft | 419 kts | 70° |
| 2026-04-18 04:30 | 48.33503 | 18.36627 | 23196 ft | 419 kts | 70° |
| 2026-04-18 04:30 | 48.34024 | 18.39434 | 23196 ft | 419 kts | 70° |
| 2026-04-18 04:30 | 48.34807 | 18.43652 | 23197 ft | 419 kts | 70° |
| 2026-04-18 04:31 | 48.35587 | 18.47869 | 23201 ft | 420 kts | 70° |
| 2026-04-18 04:31 | 48.36366 | 18.52104 | 23195 ft | 420 kts | 71° |
| 2026-04-18 04:31 | 48.37070 | 18.56367 | 23195 ft | 421 kts | 73° |
| 2026-04-18 04:31 | 48.37721 | 18.60674 | 23202 ft | 422 kts | 73° |
| 2026-04-18 04:32 | 48.38353 | 18.64980 | 23202 ft | 422 kts | 73° |
| 2026-04-18 04:32 | 48.38986 | 18.69296 | 23196 ft | 423 kts | 73° |
| 2026-04-18 04:32 | 48.39628 | 18.73625 | 23202 ft | 423 kts | 73° |
| 2026-04-18 04:32 | 48.40276 | 18.77962 | 23203 ft | 423 kts | 73° |
| 2026-04-18 04:33 | 48.40917 | 18.82225 | 23197 ft | 423 kts | 73° |
| 2026-04-18 04:33 | 48.41564 | 18.86533 | 23199 ft | 422 kts | 73° |
| 2026-04-18 04:33 | 48.42215 | 18.90866 | 23200 ft | 423 kts | 73° |
| 2026-04-18 04:33 | 48.42859 | 18.95175 | 23200 ft | 422 kts | 73° |
| 2026-04-18 04:34 | 48.43504 | 18.99494 | 23205 ft | 422 kts | 73° |
| 2026-04-18 04:34 | 48.44148 | 19.03814 | 23202 ft | 423 kts | 73° |
| 2026-04-18 04:34 | 48.44788 | 19.08128 | 23210 ft | 423 kts | 73° |
| 2026-04-18 04:34 | 48.45426 | 19.12459 | 23204 ft | 423 kts | 74° |
| 2026-04-18 04:35 | 48.45989 | 19.16807 | 23200 ft | 424 kts | 76° |
| 2026-04-18 04:35 | 48.46495 | 19.21197 | 23197 ft | 425 kts | 76° |
| 2026-04-18 04:35 | 48.46983 | 19.25575 | 23206 ft | 425 kts | 76° |
| 2026-04-18 04:35 | 48.47476 | 19.29982 | 23205 ft | 425 kts | 76° |
| 2026-04-18 04:36 | 48.47970 | 19.34345 | 23174 ft | 417 kts | 76° |
| 2026-04-18 04:36 | 48.48447 | 19.38523 | 23114 ft | 402 kts | 76° |
| 2026-04-18 04:36 | 48.48921 | 19.42637 | 23123 ft | 395 kts | 76° |
| 2026-04-18 04:36 | 48.49389 | 19.46678 | 22844 ft | 389 kts | 76° |
| 2026-04-18 04:37 | 48.49853 | 19.50685 | 22352 ft | 388 kts | 76° |
| 2026-04-18 04:37 | 48.50304 | 19.54631 | 22260 ft | 375 kts | 76° |
| 2026-04-18 04:37 | 48.50738 | 19.58445 | 22173 ft | 363 kts | 76° |
| 2026-04-18 04:37 | 48.51156 | 19.62141 | 22089 ft | 351 kts | 76° |
| 2026-04-18 04:38 | 48.51559 | 19.65712 | 22033 ft | 341 kts | 76° |
| 2026-04-18 04:38 | 48.51950 | 19.69185 | 21946 ft | 330 kts | 75° |
| 2026-04-18 04:38 | 48.52326 | 19.72529 | 21870 ft | 320 kts | 75° |
| 2026-04-18 04:38 | 48.52696 | 19.75820 | 21733 ft | 312 kts | 75° |
| 2026-04-18 04:39 | 48.53054 | 19.79010 | 21454 ft | 309 kts | 75° |
| 2026-04-18 04:39 | 48.53414 | 19.82201 | 21100 ft | 309 kts | 75° |
| 2026-04-18 04:39 | 48.53772 | 19.85392 | 20794 ft | 308 kts | 75° |
| 2026-04-18 04:39 | 48.54123 | 19.88529 | 20488 ft | 307 kts | 76° |
| 2026-04-18 04:40 | 48.54475 | 19.91702 | 20208 ft | 305 kts | 76° |
| 2026-04-18 04:40 | 48.54825 | 19.94858 | 19917 ft | 304 kts | 76° |
| 2026-04-18 04:40 | 48.55172 | 19.97996 | 19619 ft | 303 kts | 76° |
| 2026-04-18 04:40 | 48.55517 | 20.01125 | 19345 ft | 302 kts | 76° |
| 2026-04-18 04:41 | 48.55859 | 20.04251 | 19066 ft | 300 kts | 76° |
| 2026-04-18 04:41 | 48.56200 | 20.07356 | 18793 ft | 299 kts | 76° |
| 2026-04-18 04:41 | 48.56538 | 20.10453 | 18507 ft | 298 kts | 76° |
| 2026-04-18 04:41 | 48.56874 | 20.13533 | 18194 ft | 297 kts | 76° |
| 2026-04-18 04:42 | 48.57209 | 20.16606 | 17916 ft | 295 kts | 76° |
| 2026-04-18 04:42 | 48.57540 | 20.19653 | 17644 ft | 293 kts | 76° |
| 2026-04-18 04:42 | 48.57868 | 20.22688 | 17341 ft | 292 kts | 76° |
| 2026-04-18 04:42 | 48.58192 | 20.25712 | 17046 ft | 291 kts | 78° |
| 2026-04-18 04:43 | 48.58195 | 20.28780 | 16738 ft | 295 kts | 94° |
| 2026-04-18 04:43 | 48.57885 | 20.31803 | 16486 ft | 293 kts | 96° |
| 2026-04-18 04:43 | 48.57544 | 20.34845 | 16200 ft | 292 kts | 96° |
| 2026-04-18 04:43 | 48.57209 | 20.37862 | 15929 ft | 291 kts | 96° |
| 2026-04-18 04:44 | 48.56882 | 20.40871 | 15666 ft | 289 kts | 96° |
| 2026-04-18 04:44 | 48.56563 | 20.43864 | 15406 ft | 288 kts | 96° |
| 2026-04-18 04:44 | 48.56250 | 20.46844 | 15139 ft | 286 kts | 96° |
| 2026-04-18 04:44 | 48.55940 | 20.49814 | 14872 ft | 285 kts | 96° |
| 2026-04-18 04:45 | 48.55638 | 20.52724 | 14618 ft | 284 kts | 95° |
| 2026-04-18 04:45 | 48.55333 | 20.55665 | 14368 ft | 282 kts | 96° |
| 2026-04-18 04:45 | 48.55030 | 20.58581 | 14118 ft | 281 kts | 96° |
| 2026-04-18 04:45 | 48.54728 | 20.61489 | 13869 ft | 280 kts | 96° |
| 2026-04-18 04:46 | 48.54426 | 20.64381 | 13581 ft | 278 kts | 96° |
| 2026-04-18 04:46 | 48.54128 | 20.67223 | 13506 ft | 269 kts | 96° |
| 2026-04-18 04:46 | 48.53840 | 20.69962 | 13418 ft | 260 kts | 96° |
| 2026-04-18 04:46 | 48.53563 | 20.72608 | 13334 ft | 251 kts | 95° |
| 2026-04-18 04:47 | 48.53296 | 20.75161 | 13263 ft | 241 kts | 95° |
| 2026-04-18 04:47 | 48.53040 | 20.77608 | 13162 ft | 232 kts | 95° |
| 2026-04-18 04:47 | 48.52792 | 20.79986 | 12944 ft | 227 kts | 95° |
| 2026-04-18 04:47 | 48.52547 | 20.82337 | 12671 ft | 226 kts | 95° |
| 2026-04-18 04:48 | 48.52306 | 20.84647 | 12412 ft | 225 kts | 95° |
| 2026-04-18 04:48 | 48.52063 | 20.86967 | 12142 ft | 224 kts | 95° |
| 2026-04-18 04:48 | 48.51820 | 20.89278 | 11861 ft | 223 kts | 95° |
| 2026-04-18 04:48 | 48.51566 | 20.91725 | 11046 ft | 249 kts | 96° |
| 2026-04-18 04:49 | 48.51286 | 20.94404 | 10359 ft | 268 kts | 96° |
| 2026-04-18 04:49 | 48.50985 | 20.97243 | 9911 ft | 274 kts | 96° |
| 2026-04-18 04:49 | 48.50685 | 21.00036 | 9733 ft | 268 kts | 96° |
| 2026-04-18 04:49 | 48.50378 | 21.02923 | 8856 ft | 287 kts | 97° |
| 2026-04-18 04:50 | 48.49976 | 21.05905 | 8033 ft | 292 kts | 100° |
| 2026-04-18 04:50 | 48.49510 | 21.08885 | 7260 ft | 292 kts | 101° |
| 2026-04-18 04:50 | 48.49063 | 21.11828 | 6613 ft | 279 kts | 96° |
| 2026-04-18 04:50 | 48.49159 | 21.14561 | 6182 ft | 254 kts | 69° |
| 2026-04-18 04:51 | 48.49977 | 21.16772 | 5744 ft | 234 kts | 46° |
| 2026-04-18 04:51 | 48.51166 | 21.18380 | 5292 ft | 221 kts | 31° |
| 2026-04-18 04:51 | 48.52517 | 21.19232 | 4831 ft | 210 kts | 3° |
| 2026-04-18 04:51 | 48.53844 | 21.18580 | 4397 ft | 205 kts | 319° |
| 2026-04-18 04:52 | 48.54400 | 21.16682 | 4087 ft | 203 kts | 271° |
| 2026-04-18 04:52 | 48.53843 | 21.14792 | 3803 ft | 202 kts | 223° |
| 2026-04-18 04:52 | 48.52678 | 21.13641 | 3585 ft | 199 kts | 226° |
| 2026-04-18 04:52 | 48.51982 | 21.11898 | 3336 ft | 193 kts | 246° |
| 2026-04-18 04:53 | 48.51162 | 21.10266 | 3175 ft | 193 kts | 231° |
| 2026-04-18 04:53 | 48.50115 | 21.09004 | 3147 ft | 196 kts | 206° |
| 2026-04-18 04:53 | 48.48738 | 21.08857 | 3183 ft | 209 kts | 159° |
| 2026-04-18 04:53 | 48.47644 | 21.10182 | 3180 ft | 205 kts | 114° |
| 2026-04-18 04:54 | 48.47415 | 21.12220 | 3214 ft | 196 kts | 81° |
| 2026-04-18 04:54 | 48.47759 | 21.14191 | 3215 ft | 193 kts | 60° |
| 2026-04-18 04:54 | 48.48524 | 21.15812 | 3219 ft | 189 kts | 43° |
| 2026-04-18 04:54 | 48.49542 | 21.17052 | 3235 ft | 188 kts | 30° |
| 2026-04-18 04:55 | 48.50648 | 21.18094 | 3161 ft | 186 kts | 28° |
| 2026-04-18 04:55 | 48.51834 | 21.18875 | 3116 ft | 186 kts | 18° |
| 2026-04-18 04:55 | 48.53063 | 21.19455 | 3078 ft | 185 kts | 13° |
| 2026-04-18 04:56 | 48.55583 | 21.20372 | 2821 ft | 186 kts | 12° |
| 2026-04-18 04:56 | 48.56821 | 21.20803 | 2594 ft | 185 kts | 12° |
| 2026-04-18 04:56 | 48.58075 | 21.21240 | 2349 ft | 183 kts | 12° |
| 2026-04-18 04:56 | 48.59287 | 21.21663 | 2106 ft | 173 kts | 12° |
| 2026-04-18 04:57 | 48.60428 | 21.22062 | 1876 ft | 165 kts | 12° |
| 2026-04-18 04:57 | 48.61521 | 21.22445 | 1660 ft | 159 kts | 12° |
| 2026-04-18 04:57 | 48.62628 | 21.22815 | 1311 ft | 164 kts | 12° |
| 2026-04-18 04:57 | 48.63724 | 21.23213 | 1118 ft | 161 kts | 13° |
| 2026-04-18 04:58 | 48.64825 | 21.23596 | 870 ft | 162 kts | 13° |
| 2026-04-18 04:58 | 48.65903 | 21.23972 | 753 ft | 156 kts | 12° |
| 2026-04-18 04:58 | 48.66690 | 21.24247 | 757 ft | 82 kts | 13° |
| 2026-04-18 04:58 | 48.67144 | 21.24399 | 758 ft | 33 kts | 14° |
| 2026-04-18 04:59 | 48.67256 | 21.24253 | 758 ft | 27 kts | 276° |
| 2026-04-18 04:59 | 48.67302 | 21.23958 | 762 ft | 29 kts | 286° |
| 2026-04-18 04:59 | 48.67311 | 21.23869 | 764 ft | 4 kts | 320° |
| 2026-04-18 04:59 | 48.67322 | 21.23865 | 764 ft | 0 kts | 359° |